createdAt,value
2019-05-09T00:01:23.652Z,1.40
2019-05-09T00:03:53.817Z,1.50
2019-05-09T00:06:23.914Z,1.40
2019-05-09T00:08:53.208Z,1.40
2019-05-09T00:11:24.409Z,1.30
2019-05-09T00:13:53.851Z,1.50
2019-05-09T00:16:23.523Z,1.47
2019-05-09T00:18:54.096Z,1.33
2019-05-09T00:21:24.138Z,1.17
2019-05-09T00:23:54.137Z,1.17
2019-05-09T00:26:23.542Z,1.23
2019-05-09T00:28:53.927Z,1.37
2019-05-09T00:31:40.658Z,1.30
2019-05-09T00:34:10.919Z,1.37
2019-05-09T00:36:39.490Z,1.30
2019-05-09T00:39:08.161Z,1.13
2019-05-09T00:41:36.757Z,1.20
2019-05-09T00:44:07.078Z,1.20
2019-05-09T00:46:40.070Z,1.30
2019-05-09T00:49:10.357Z,1.10
2019-05-09T00:51:39.028Z,1.10
2019-05-09T00:54:26.975Z,1.20
2019-05-09T00:56:55.549Z,1.20
2019-05-09T00:59:24.250Z,1.13
2019-05-09T01:01:54.295Z,1.13
2019-05-09T01:04:24.112Z,1.30
2019-05-09T01:06:54.013Z,1.10
2019-05-09T01:09:24.157Z,1.40
2019-05-09T01:11:53.465Z,1.20
2019-05-09T01:14:23.476Z,1.57
2019-05-09T01:16:53.450Z,1.20
2019-05-09T01:19:23.316Z,1.30
2019-05-09T01:21:54.040Z,1.20
2019-05-09T01:24:23.274Z,1.20
2019-05-09T01:26:54.021Z,1.20
2019-05-09T01:29:23.066Z,1.40
2019-05-09T01:31:54.081Z,1.10
2019-05-09T01:34:24.389Z,1.20
2019-05-09T01:37:06.472Z,1.20
2019-05-09T01:39:35.913Z,1.30
2019-05-09T01:42:04.834Z,1.20
2019-05-09T01:44:33.700Z,1.20
2019-05-09T01:47:03.742Z,1.40
2019-05-09T01:49:34.092Z,1.40
2019-05-09T01:52:03.429Z,1.20
2019-05-09T01:54:33.771Z,1.40
2019-05-09T01:57:03.341Z,1.33
2019-05-09T01:59:33.955Z,1.30
2019-05-09T02:02:08.291Z,1.33
2019-05-09T02:04:33.873Z,1.53
2019-05-09T02:07:04.166Z,1.13
2019-05-09T02:09:34.243Z,1.13
2019-05-09T02:12:03.853Z,1.40
2019-05-09T02:14:34.503Z,1.10
2019-05-09T02:17:20.132Z,1.10
2019-05-09T02:19:48.746Z,1.50
2019-05-09T02:22:36.269Z,1.20
2019-05-09T02:25:07.116Z,1.30
2019-05-09T02:27:35.682Z,1.20
2019-05-09T02:30:09.930Z,1.30
2019-05-09T02:32:39.274Z,1.10
2019-05-09T02:35:08.217Z,1.07
2019-05-09T02:37:38.996Z,1.10
2019-05-09T02:40:09.742Z,1.13
2019-05-09T02:42:39.565Z,1.10
2019-05-09T02:45:08.972Z,1.30
2019-05-09T02:47:38.553Z,1.10
2019-05-09T02:50:09.325Z,1.20
2019-05-09T02:52:39.636Z,1.40
2019-05-09T02:55:09.839Z,1.17
2019-05-09T02:57:39.129Z,1.30
2019-05-09T03:00:10.559Z,1.17
2019-05-09T03:02:40.996Z,1.20
2019-05-09T03:05:09.894Z,1.20
2019-05-09T03:07:50.398Z,1.10
2019-05-09T03:10:20.129Z,1.07
2019-05-09T03:12:50.279Z,1.00
2019-05-09T03:17:49.202Z,1.10
2019-05-09T03:20:20.908Z,1.30
2019-05-09T03:22:49.536Z,1.30
2019-05-09T03:25:19.097Z,1.30
2019-05-09T03:27:49.633Z,1.00
2019-05-09T03:30:31.853Z,1.10
2019-05-09T03:33:00.490Z,1.10
2019-05-09T03:35:29.128Z,1.23
2019-05-09T03:38:08.194Z,1.27
2019-05-09T03:40:37.902Z,1.10
2019-05-09T03:43:07.948Z,1.17
2019-05-09T03:45:38.575Z,1.00
2019-05-09T03:48:08.815Z,1.00
2019-05-09T03:50:38.264Z,1.00
2019-05-09T03:53:08.387Z,0.90
2019-05-09T03:55:38.312Z,1.00
2019-05-09T03:58:14.588Z,1.00
2019-05-09T04:00:43.237Z,1.00
2019-05-09T04:03:11.831Z,1.07
2019-05-09T04:05:55.123Z,1.10
2019-05-09T04:08:18.196Z,1.10
2019-05-09T04:10:50.278Z,1.00
2019-05-09T04:13:20.250Z,1.00
2019-05-09T04:15:48.843Z,1.10
2019-05-09T04:18:17.784Z,1.10
2019-05-09T04:20:48.231Z,1.00
2019-05-09T04:23:18.638Z,0.90
2019-05-09T04:26:00.194Z,1.10
2019-05-09T04:28:28.783Z,1.00
2019-05-09T04:30:58.209Z,1.13
2019-05-09T04:33:27.957Z,1.10
2019-05-09T04:35:57.912Z,1.10
2019-05-09T04:38:27.910Z,1.20
2019-05-09T04:40:58.324Z,1.30
2019-05-09T04:43:34.848Z,1.10
2019-05-09T04:46:01.649Z,1.00
2019-05-09T04:48:33.733Z,1.27
2019-05-09T04:51:07.611Z,1.10
2019-05-09T04:53:37.748Z,1.20
2019-05-09T04:56:22.415Z,1.33
2019-05-09T04:58:50.986Z,1.10
2019-05-09T05:01:39.318Z,1.10
2019-05-09T05:04:08.538Z,1.30
2019-05-09T05:06:40.337Z,1.20
2019-05-09T05:09:09.366Z,1.10
2019-05-09T05:11:38.427Z,1.20
2019-05-09T05:14:09.282Z,1.27
2019-05-09T05:16:39.168Z,1.30
2019-05-09T05:19:07.729Z,1.20
2019-05-09T05:21:37.780Z,1.30
2019-05-09T05:24:08.470Z,1.20
2019-05-09T05:26:38.081Z,1.40
2019-05-09T05:29:08.477Z,1.10
2019-05-09T05:31:38.767Z,1.23
2019-05-09T05:34:18.299Z,1.20
2019-05-09T05:36:47.657Z,1.20
2019-05-09T05:39:17.860Z,1.10
2019-05-09T05:41:48.440Z,1.30
2019-05-09T05:44:17.743Z,1.17
2019-05-09T05:46:53.963Z,1.20
2019-05-09T05:49:22.544Z,1.23
2019-05-09T05:51:51.200Z,1.10
2019-05-09T05:54:21.862Z,1.20
2019-05-09T05:56:50.524Z,1.20
2019-05-09T05:59:19.339Z,1.40
2019-05-09T06:01:48.047Z,1.30
2019-05-09T06:04:18.530Z,1.20
2019-05-09T06:06:48.000Z,1.20
2019-05-09T06:09:19.050Z,1.30
2019-05-09T06:11:48.457Z,1.20
2019-05-09T06:14:18.462Z,1.30
2019-05-09T06:16:48.634Z,1.10
2019-05-09T06:19:17.913Z,1.17
2019-05-09T06:21:48.575Z,1.10
2019-05-09T06:24:17.830Z,1.10
2019-05-09T06:26:47.845Z,1.10
2019-05-09T06:29:17.771Z,1.27
2019-05-09T06:31:48.486Z,1.20
2019-05-09T06:34:18.726Z,1.33
2019-05-09T06:36:48.869Z,1.10
2019-05-09T06:39:17.981Z,1.30
2019-05-09T06:41:48.357Z,1.30
2019-05-09T06:44:28.264Z,1.20
2019-05-09T06:47:01.560Z,1.40
2019-05-09T06:49:32.152Z,1.13
2019-05-09T06:52:00.885Z,1.30
2019-05-09T06:54:29.507Z,1.10
2019-05-09T06:56:58.596Z,1.10
2019-05-09T06:59:28.312Z,1.10
2019-05-09T07:01:58.898Z,1.10
2019-05-09T07:04:41.417Z,1.27
2019-05-09T07:07:17.738Z,1.13
2019-05-09T07:09:58.568Z,1.40
2019-05-09T07:12:27.448Z,1.10
2019-05-09T07:14:58.108Z,1.10
2019-05-09T07:17:31.685Z,1.27
2019-05-09T07:19:58.997Z,1.20
2019-05-09T07:22:28.823Z,1.20
2019-05-09T07:25:14.085Z,1.53
2019-05-09T07:27:44.323Z,1.30
2019-05-09T07:30:34.650Z,1.20
2019-05-09T07:33:20.320Z,1.30
2019-05-09T07:35:48.932Z,1.40
2019-05-09T07:38:19.156Z,1.40
2019-05-09T07:40:47.929Z,1.50
2019-05-09T07:43:17.979Z,1.30
2019-05-09T07:46:08.779Z,1.50
2019-05-09T07:48:38.455Z,1.60
2019-05-09T07:51:07.847Z,1.30
2019-05-09T07:53:38.001Z,1.37
2019-05-09T07:56:07.996Z,1.20
2019-05-09T07:58:37.733Z,1.57
2019-05-09T08:01:08.484Z,1.33
2019-05-09T08:03:38.404Z,1.30
2019-05-09T08:06:08.737Z,1.60
2019-05-09T08:08:38.626Z,1.60
2019-05-09T08:11:08.855Z,1.40
2019-05-09T08:13:39.136Z,1.47
2019-05-09T08:16:13.996Z,1.43
2019-05-09T08:18:38.286Z,1.57
2019-05-09T08:21:08.429Z,1.50
2019-05-09T08:23:37.969Z,1.40
2019-05-09T08:26:08.724Z,1.33
2019-05-09T08:28:38.895Z,1.40
2019-05-09T08:31:08.476Z,1.40
2019-05-09T08:33:38.125Z,1.50
2019-05-09T08:36:08.628Z,1.53
2019-05-09T08:38:38.936Z,1.40
2019-05-09T08:41:09.609Z,1.47
2019-05-09T08:43:39.877Z,1.40
2019-05-09T08:46:09.489Z,1.60
2019-05-09T08:48:38.526Z,1.50
2019-05-09T08:51:21.078Z,1.70
2019-05-09T08:53:49.727Z,1.70
2019-05-09T08:56:18.306Z,1.70
2019-05-09T08:58:48.473Z,1.60
2019-05-09T09:01:27.652Z,1.60
2019-05-09T09:03:48.457Z,1.60
2019-05-09T09:06:18.390Z,1.73
2019-05-09T09:08:48.332Z,1.60
2019-05-09T09:11:18.802Z,1.70
2019-05-09T09:13:48.307Z,1.70
2019-05-09T09:16:21.577Z,1.70
2019-05-09T09:18:47.996Z,1.50
2019-05-09T09:21:18.316Z,1.60
2019-05-09T09:23:50.457Z,1.60
2019-05-09T09:26:18.335Z,1.37
2019-05-09T09:28:48.445Z,1.40
2019-05-09T09:31:18.045Z,1.47
2019-05-09T09:33:48.016Z,1.30
2019-05-09T09:36:17.882Z,1.43
2019-05-09T09:38:48.067Z,1.50
2019-05-09T09:41:18.195Z,1.40
2019-05-09T09:43:47.643Z,1.53
2019-05-09T09:46:18.222Z,1.50
2019-05-09T09:48:48.010Z,1.37
2019-05-09T09:51:18.606Z,1.53
2019-05-09T09:53:48.962Z,1.30
2019-05-09T09:56:18.245Z,1.30
2019-05-09T09:58:49.298Z,1.70
2019-05-09T10:01:22.290Z,1.50
2019-05-09T10:03:52.501Z,1.30
2019-05-09T10:06:21.083Z,1.40
2019-05-09T10:08:49.599Z,1.37
2019-05-09T10:11:18.130Z,1.30
2019-05-09T10:13:48.082Z,1.30
2019-05-09T10:16:29.093Z,1.20
2019-05-09T10:18:53.286Z,1.17
2019-05-09T10:21:27.702Z,1.40
2019-05-09T10:23:57.584Z,1.20
2019-05-09T10:26:28.376Z,2.30
2019-05-09T10:28:56.453Z,2.30
2019-05-09T10:31:25.027Z,2.30
2019-05-09T10:33:53.629Z,2.10
2019-05-09T10:36:22.109Z,2.13
2019-05-09T10:38:50.781Z,1.90
2019-05-09T10:41:19.362Z,2.00
2019-05-09T10:43:49.588Z,2.00
2019-05-09T10:46:48.260Z,2.00
2019-05-09T10:49:08.333Z,1.70
2019-05-09T10:51:37.159Z,1.87
2019-05-09T10:54:07.837Z,2.00
2019-05-09T10:56:38.393Z,1.57
2019-05-09T10:59:07.800Z,1.80
2019-05-09T11:01:38.143Z,1.47
2019-05-09T11:04:08.135Z,1.57
2019-05-09T11:06:41.049Z,1.43
2019-05-09T11:09:13.979Z,1.40
2019-05-09T11:11:48.426Z,1.30
2019-05-09T11:14:32.539Z,1.20
2019-05-09T11:17:06.738Z,1.27
2019-05-09T11:19:23.651Z,1.10
2019-05-09T11:21:53.300Z,1.27
2019-05-09T11:24:37.017Z,1.10
2019-05-09T11:26:53.331Z,1.20
2019-05-09T11:29:22.725Z,1.37
2019-05-09T11:31:54.688Z,1.40
2019-05-09T11:34:23.906Z,1.50
2019-05-09T11:36:53.808Z,1.53
2019-05-09T11:39:35.778Z,1.43
2019-05-09T11:41:58.371Z,1.40
2019-05-09T11:44:27.326Z,1.40
2019-05-09T11:46:58.286Z,1.40
2019-05-09T11:49:29.253Z,1.43
2019-05-09T11:51:57.659Z,1.37
2019-05-09T11:54:27.895Z,1.47
2019-05-09T11:56:57.647Z,1.40
2019-05-09T11:59:28.055Z,1.40
2019-05-09T12:01:58.656Z,1.40
2019-05-09T12:04:28.173Z,1.57
2019-05-09T12:06:57.763Z,1.30
2019-05-09T12:09:28.857Z,1.33
2019-05-09T12:11:59.040Z,1.30
2019-05-09T12:14:27.619Z,1.30
2019-05-09T12:16:56.310Z,1.33
2019-05-09T12:19:24.860Z,1.20
2019-05-09T12:21:53.444Z,1.10
2019-05-09T12:24:21.913Z,1.30
2019-05-09T12:26:50.571Z,1.30
2019-05-09T12:29:19.792Z,1.30
2019-05-09T12:31:48.692Z,1.40
2019-05-09T12:34:19.372Z,1.27
2019-05-09T12:36:49.531Z,1.43
2019-05-09T12:39:18.866Z,1.50
2019-05-09T12:41:48.383Z,1.50
2019-05-09T12:44:18.301Z,1.40
2019-05-09T12:46:48.788Z,1.30
2019-05-09T12:49:19.041Z,1.30
2019-05-09T12:51:47.766Z,1.57
2019-05-09T12:54:18.781Z,1.50
2019-05-09T12:56:48.584Z,1.60
2019-05-09T12:59:18.741Z,1.33
2019-05-09T13:01:49.152Z,1.40
2019-05-09T13:04:17.261Z,1.70
2019-05-09T13:06:48.114Z,1.40
2019-05-09T13:09:17.794Z,1.60
2019-05-09T13:11:48.217Z,1.50
2019-05-09T13:14:18.947Z,2.27
2019-05-09T13:16:52.966Z,1.50
2019-05-09T13:19:20.210Z,1.40
2019-05-09T13:21:48.730Z,1.70
2019-05-09T13:24:19.572Z,1.60
2019-05-09T13:26:49.449Z,1.50
2019-05-09T13:29:18.005Z,1.60
2019-05-09T13:31:48.234Z,1.60
2019-05-09T13:34:18.915Z,1.50
2019-05-09T13:36:48.891Z,1.30
2019-05-09T13:39:17.989Z,1.43
2019-05-09T13:41:47.590Z,1.40
2019-05-09T13:44:18.145Z,1.40
2019-05-09T13:46:48.913Z,1.23
2019-05-09T13:49:19.116Z,1.07
2019-05-09T13:51:57.481Z,1.20
2019-05-09T13:54:18.476Z,1.20
2019-05-09T13:56:50.519Z,1.37
2019-05-09T13:59:18.697Z,1.37
2019-05-09T14:01:48.000Z,1.40
2019-05-09T14:04:16.747Z,1.40
2019-05-09T14:06:45.308Z,1.47
2019-05-09T14:09:13.964Z,1.30
2019-05-09T14:11:42.525Z,1.13
2019-05-09T14:14:11.032Z,1.40
2019-05-09T14:16:39.600Z,1.40
2019-05-09T14:19:26.288Z,1.30
2019-05-09T14:21:38.384Z,1.67
2019-05-09T14:24:15.203Z,1.40
2019-05-09T14:26:37.369Z,1.27
2019-05-09T14:29:07.400Z,1.40
2019-05-09T14:31:38.622Z,1.37
2019-05-09T14:34:08.567Z,1.50
2019-05-09T14:36:39.129Z,1.50
2019-05-09T14:39:09.272Z,1.50
2019-05-09T14:41:39.095Z,1.53
2019-05-09T14:44:09.430Z,1.10
2019-05-09T14:46:39.133Z,1.53
2019-05-09T14:49:08.077Z,1.30
2019-05-09T14:51:38.078Z,1.50
2019-05-09T14:54:08.398Z,1.53
2019-05-09T14:56:41.881Z,1.50
2019-05-09T14:59:09.726Z,1.30
2019-05-09T15:01:39.095Z,1.27
2019-05-09T15:04:08.954Z,1.23
2019-05-09T15:06:37.864Z,1.37
2019-05-09T15:09:08.404Z,1.20
2019-05-09T15:11:39.402Z,1.30
2019-05-09T15:14:08.351Z,1.30
2019-05-09T15:16:39.258Z,1.43
2019-05-09T15:19:08.375Z,1.33
2019-05-09T15:21:38.182Z,1.50
2019-05-09T15:24:09.214Z,1.33
2019-05-09T15:26:37.499Z,1.37
2019-05-09T15:29:08.088Z,1.20
2019-05-09T15:31:38.865Z,1.13
2019-05-09T15:34:08.931Z,1.20
2019-05-09T15:36:37.980Z,1.20
2019-05-09T15:39:08.270Z,1.20
2019-05-09T15:41:38.542Z,1.30
2019-05-09T15:44:08.357Z,1.30
2019-05-09T15:46:44.755Z,1.37
2019-05-09T15:49:13.308Z,1.30
2019-05-09T15:51:41.812Z,1.50
2019-05-09T15:54:10.433Z,1.20
2019-05-09T15:56:39.025Z,1.50
2019-05-09T15:59:07.587Z,1.40
2019-05-09T16:01:38.358Z,1.30
2019-05-09T16:04:08.434Z,1.37
2019-05-09T16:06:39.158Z,1.30
2019-05-09T16:09:11.326Z,1.60
2019-05-09T16:11:37.773Z,1.30
2019-05-09T16:14:07.619Z,1.20
2019-05-09T16:16:38.416Z,1.20
2019-05-09T16:19:08.886Z,1.20
2019-05-09T16:21:38.305Z,1.30
2019-05-09T16:24:08.107Z,1.27
2019-05-09T16:26:38.301Z,1.40
2019-05-09T16:29:08.517Z,1.40
2019-05-09T16:31:38.785Z,1.70
2019-05-09T16:34:09.353Z,1.30
2019-05-09T16:36:38.903Z,1.70
2019-05-09T16:39:08.116Z,1.40
2019-05-09T16:41:39.133Z,1.30
2019-05-09T16:44:07.667Z,1.30
2019-05-09T16:46:37.529Z,1.20
2019-05-09T16:49:11.359Z,1.10
2019-05-09T16:51:37.893Z,1.07
2019-05-09T16:54:07.431Z,1.40
2019-05-09T16:56:38.131Z,1.17
2019-05-09T16:59:08.362Z,1.07
2019-05-09T17:01:39.510Z,1.10
2019-05-09T17:04:08.388Z,1.10
2019-05-09T17:06:38.102Z,1.10
2019-05-09T17:09:10.065Z,1.30
2019-05-09T17:11:39.120Z,1.27
2019-05-09T17:14:08.366Z,1.10
2019-05-09T17:16:37.643Z,1.10
2019-05-09T17:19:06.499Z,1.20
2019-05-09T17:21:42.773Z,1.10
2019-05-09T17:24:15.592Z,1.27
2019-05-09T17:26:44.223Z,1.10
2019-05-09T17:29:12.868Z,1.10
2019-05-09T17:31:41.422Z,1.20
2019-05-09T17:34:10.096Z,1.00
2019-05-09T17:36:38.877Z,1.17
2019-05-09T17:39:08.079Z,1.20
2019-05-09T17:41:37.926Z,1.23
2019-05-09T17:44:07.703Z,1.20
2019-05-09T17:46:38.561Z,1.20
2019-05-09T17:49:08.317Z,1.53
2019-05-09T17:51:37.038Z,1.57
2019-05-09T17:54:08.077Z,1.43
2019-05-09T17:56:37.933Z,1.30
2019-05-09T17:59:08.316Z,1.00
2019-05-09T18:01:36.552Z,1.40
2019-05-09T18:04:05.151Z,1.40
2019-05-09T18:06:33.663Z,1.30
2019-05-09T18:09:02.346Z,1.30
2019-05-09T18:11:30.819Z,1.97
2019-05-09T18:13:59.382Z,1.30
2019-05-09T18:16:28.601Z,1.20
2019-05-09T18:18:59.444Z,1.10
2019-05-09T18:21:28.413Z,1.20
2019-05-09T18:23:58.664Z,1.20
2019-05-09T18:26:27.605Z,1.30
2019-05-09T18:29:00.993Z,1.10
2019-05-09T18:31:28.097Z,1.00
2019-05-09T18:34:01.277Z,1.23
2019-05-09T18:36:29.899Z,1.00
2019-05-09T18:38:58.648Z,1.20
2019-05-09T18:41:30.148Z,1.10
2019-05-09T18:43:58.789Z,1.40
2019-05-09T18:46:28.040Z,1.30
2019-05-09T18:48:56.799Z,1.10
2019-05-09T18:51:28.453Z,1.20
2019-05-09T18:53:55.543Z,1.20
2019-05-09T18:56:24.211Z,1.00
2019-05-09T18:58:52.756Z,1.50
2019-05-09T19:01:21.271Z,1.30
2019-05-09T19:03:49.762Z,1.23
2019-05-09T19:06:18.341Z,1.10
2019-05-09T19:08:46.955Z,1.40
2019-05-09T19:11:15.507Z,1.13
2019-05-09T19:13:46.329Z,1.10
2019-05-09T19:16:16.433Z,1.10
2019-05-09T19:18:58.642Z,1.00
2019-05-09T19:21:35.155Z,1.03
2019-05-09T19:24:03.791Z,1.00
2019-05-09T19:26:37.964Z,1.07
2019-05-09T19:29:07.599Z,1.00
2019-05-09T19:31:36.319Z,1.00
2019-05-09T19:34:06.255Z,1.00
2019-05-09T19:36:35.294Z,1.10
2019-05-09T19:39:05.935Z,0.90
2019-05-09T19:41:34.982Z,1.10
2019-05-09T19:44:03.931Z,1.10
2019-05-09T19:46:32.526Z,1.00
2019-05-09T19:49:01.104Z,1.00
2019-05-09T19:51:29.759Z,1.00
2019-05-09T19:53:58.307Z,1.00
2019-05-09T19:56:26.888Z,1.80
2019-05-09T19:58:55.391Z,1.10
2019-05-09T20:01:23.983Z,1.20
2019-05-09T20:03:52.528Z,1.20
2019-05-09T20:06:21.041Z,1.13
2019-05-09T20:08:49.607Z,1.00
2019-05-09T20:11:19.836Z,1.20
2019-05-09T20:13:59.382Z,1.10
2019-05-09T20:16:35.428Z,1.20
2019-05-09T20:19:04.036Z,1.10
2019-05-09T20:21:32.612Z,1.37
2019-05-09T20:24:01.271Z,1.10
2019-05-09T20:26:29.903Z,1.03
2019-05-09T20:28:58.431Z,1.20
2019-05-09T20:31:26.983Z,1.40
2019-05-09T20:33:55.554Z,1.10
2019-05-09T20:36:24.069Z,1.30
2019-05-09T20:38:52.794Z,1.00
2019-05-09T20:41:21.566Z,1.00
2019-05-09T20:43:50.315Z,1.33
2019-05-09T20:46:19.172Z,1.20
2019-05-09T20:48:47.979Z,1.23
2019-05-09T20:51:17.081Z,1.10
2019-05-09T20:53:45.951Z,1.10
2019-05-09T20:56:14.892Z,1.20
2019-05-09T20:58:43.635Z,1.00
2019-05-09T21:01:12.474Z,0.90
2019-05-09T21:03:41.176Z,1.00
2019-05-09T21:06:10.006Z,1.10
2019-05-09T21:08:38.923Z,1.00
2019-05-09T21:11:07.655Z,0.90
2019-05-09T21:13:48.095Z,0.93
2019-05-09T21:16:06.842Z,1.00
2019-05-09T21:18:35.583Z,0.93
2019-05-09T21:21:04.543Z,1.13
2019-05-09T21:23:33.293Z,1.00
2019-05-09T21:26:02.118Z,0.90
2019-05-09T21:28:30.832Z,1.10
2019-05-09T21:30:59.605Z,1.00
2019-05-09T21:33:28.248Z,0.90
2019-05-09T21:35:56.773Z,1.10
2019-05-09T21:38:25.349Z,1.00
2019-05-09T21:40:53.810Z,1.00
2019-05-09T21:43:22.406Z,1.40
2019-05-09T21:45:50.947Z,1.00
2019-05-09T21:48:19.468Z,0.90
2019-05-09T21:50:48.007Z,1.00
2019-05-09T21:53:16.646Z,1.10
2019-05-09T21:55:45.289Z,1.20
2019-05-09T21:58:13.787Z,1.00
2019-05-09T22:00:45.606Z,1.10
2019-05-09T22:03:17.534Z,1.10
2019-05-09T22:05:46.034Z,0.90
2019-05-09T22:08:15.395Z,1.20
2019-05-09T22:10:47.484Z,1.00
2019-05-09T22:13:17.790Z,1.30
2019-05-09T22:15:46.322Z,1.23
2019-05-09T22:18:16.447Z,1.50
2019-05-09T22:20:44.923Z,1.37
2019-05-09T22:23:15.083Z,1.33
2019-05-09T22:25:43.693Z,1.10
2019-05-09T22:28:12.241Z,1.23
2019-05-09T22:30:40.859Z,1.50
2019-05-09T22:33:09.371Z,1.50
2019-05-09T22:35:37.928Z,1.40
2019-05-09T22:38:06.505Z,1.97
2019-05-09T22:40:35.086Z,1.40
2019-05-09T22:43:03.679Z,1.33
2019-05-09T22:45:32.309Z,1.50
2019-05-09T22:48:00.903Z,1.40
2019-05-09T22:50:29.680Z,1.50
2019-05-09T22:52:58.423Z,1.40
2019-05-09T22:55:26.978Z,1.43
2019-05-09T22:57:55.529Z,1.10
2019-05-09T23:00:24.007Z,2.00
2019-05-09T23:02:52.526Z,1.37
2019-05-09T23:05:21.024Z,1.77
2019-05-09T23:07:49.589Z,1.60
2019-05-09T23:10:18.070Z,2.20
2019-05-09T23:12:46.747Z,1.80
2019-05-09T23:15:17.125Z,1.60
2019-05-09T23:17:45.665Z,1.40
2019-05-09T23:20:16.212Z,1.33
2019-05-09T23:22:44.982Z,1.50
2019-05-09T23:25:13.638Z,1.47
2019-05-09T23:27:42.159Z,1.20
2019-05-09T23:30:12.501Z,1.40
2019-05-09T23:32:42.723Z,1.90
2019-05-09T23:35:11.564Z,1.20
2019-05-09T23:37:40.072Z,1.20
2019-05-09T23:40:09.393Z,1.67
2019-05-09T23:42:37.915Z,1.20
2019-05-09T23:45:06.643Z,1.20
2019-05-09T23:47:35.234Z,1.40
2019-05-09T23:50:04.229Z,1.30
2019-05-09T23:52:32.797Z,1.50
2019-05-09T23:55:19.390Z,1.43
2019-05-09T23:58:06.057Z,1.50
